Time;durP1;ratioP1;P1;durP2;ratioP2;P2;SDS_P1;SDS_P2;PMS_P1;PMS_P2;Temp;Humidity;BMP_temperature;BMP_pressure;BME280_temperature;BME280_humidity;BME280_pressure;Samples;Min_cycle;Max_cycle;Signal;HPM_P1;HPM_P2
2023/08/18 00:00:13;;;;;;;22.45;12.80;;;;;;;16.54;92.11;100758.22;10128487;28;20231;-75
2023/08/18 00:05:18;;;;;;;24.30;13.00;;;;;;;16.53;92.03;100753.78;10127742;28;20048;-75
2023/08/18 00:10:22;;;;;;;24.10;13.15;;;;;;;16.50;92.05;100751.38;10133599;29;20177;-74
2023/08/18 00:15:26;;;;;;;24.30;13.68;;;;;;;16.54;92.42;100746.50;10136240;29;20063;-74
2023/08/18 00:20:29;;;;;;;25.75;12.95;;;;;;;16.57;92.66;100747.03;10133922;28;20055;-74
2023/08/18 00:25:32;;;;;;;23.63;12.02;;;;;;;16.59;92.65;100736.91;10129132;28;21300;-74
2023/08/18 00:30:36;;;;;;;19.05;12.18;;;;;;;16.61;92.80;100742.16;10138504;28;20066;-74
2023/08/18 00:35:39;;;;;;;18.40;11.15;;;;;;;16.67;93.17;100736.09;10128634;29;21192;-74
2023/08/18 00:40:42;;;;;;;19.77;11.73;;;;;;;16.70;92.87;100732.22;10131478;28;20047;-74
2023/08/18 00:45:46;;;;;;;24.38;11.75;;;;;;;16.72;93.22;100735.63;10124179;29;20102;-74
2023/08/18 00:50:50;;;;;;;19.98;12.65;;;;;;;16.74;93.30;100725.50;10131841;29;20052;-74
2023/08/18 00:55:54;;;;;;;25.45;12.38;;;;;;;16.76;93.04;100728.91;10144198;28;20048;-74
2023/08/18 01:00:58;;;;;;;25.38;13.93;;;;;;;16.69;92.89;100716.97;10134892;29;20063;-74
2023/08/18 01:06:03;;;;;;;27.55;14.60;;;;;;;16.68;93.43;100710.69;10145940;28;20574;-74
2023/08/18 01:11:12;;;;;;;25.65;14.77;;;;;;;16.64;93.27;100700.31;10135884;29;20427;-73
2023/08/18 01:16:22;;;;;;;28.50;15.38;;;;;;;16.59;93.05;100701.66;10140372;28;20056;-74
2023/08/18 01:21:26;;;;;;;30.20;14.57;;;;;;;16.61;93.52;100693.34;10143867;28;20119;-74
2023/08/18 01:26:30;;;;;;;32.63;16.98;;;;;;;16.60;93.46;100686.22;10139922;28;21262;-74
2023/08/18 01:31:35;;;;;;;24.08;15.18;;;;;;;16.56;93.41;100688.41;10125902;29;20512;-74
2023/08/18 01:36:41;;;;;;;28.50;15.05;;;;;;;16.54;93.46;100692.28;10136642;29;20040;-74
2023/08/18 01:41:46;;;;;;;31.27;15.60;;;;;;;16.55;93.21;100680.41;10133907;28;20051;-74
2023/08/18 01:46:49;;;;;;;24.42;13.27;;;;;;;16.53;93.35;100679.72;10143712;28;20052;-74
2023/08/18 01:51:52;;;;;;;33.20;13.73;;;;;;;16.49;93.24;100679.19;10143699;29;20777;-73
2023/08/18 01:56:57;;;;;;;27.10;12.75;;;;;;;16.48;93.06;100669.34;10136426;29;20059;-74
2023/08/18 02:02:02;;;;;;;27.88;11.85;;;;;;;16.43;93.21;100659.94;10136119;29;20056;-74
2023/08/18 02:07:05;;;;;;;23.50;12.15;;;;;;;16.42;92.91;100667.25;10140553;29;20048;-74
2023/08/18 02:12:09;;;;;;;29.73;12.80;;;;;;;16.42;93.14;100666.41;10142985;28;20059;-74
2023/08/18 02:17:13;;;;;;;25.40;12.65;;;;;;;16.43;93.43;100654.53;10139461;28;20047;-74
2023/08/18 02:22:16;;;;;;;23.80;11.60;;;;;;;16.41;92.93;100643.84;10141451;28;20047;-74
2023/08/18 02:27:21;;;;;;;25.67;12.88;;;;;;;16.38;93.07;100637.91;10136936;29;20052;-74
2023/08/18 02:32:25;;;;;;;24.38;12.52;;;;;;;16.38;92.99;100632.50;10130096;29;20056;-74
2023/08/18 02:37:27;;;;;;;24.02;13.23;;;;;;;16.37;93.13;100637.03;10136374;29;20052;-74
2023/08/18 02:42:33;;;;;;;29.70;13.55;;;;;;;16.36;93.40;100628.06;10127894;28;20048;-74
2023/08/18 02:47:38;;;;;;;31.25;14.32;;;;;;;16.34;93.27;100635.47;10131142;28;20492;-74
2023/08/18 02:52:41;;;;;;;34.40;15.07;;;;;;;16.36;93.23;100641.59;10127939;29;20067;-74
2023/08/18 02:57:45;;;;;;;35.38;14.43;;;;;;;16.41;93.39;100645.72;10124077;29;20056;-74
2023/08/18 03:02:49;;;;;;;38.42;15.68;;;;;;;16.45;93.63;100644.38;10129138;29;21266;-74
2023/08/18 03:07:53;;;;;;;35.03;16.33;;;;;;;16.45;93.25;100642.53;10122050;28;20186;-74
2023/08/18 03:12:57;;;;;;;42.80;16.25;;;;;;;16.43;93.67;100640.97;10129903;29;20431;-74
2023/08/18 03:18:00;;;;;;;38.05;15.73;;;;;;;16.40;93.48;100635.88;10128669;29;20264;-74
2023/08/18 03:23:03;;;;;;;36.17;15.15;;;;;;;16.40;93.38;100644.88;10143146;28;20054;-75
2023/08/18 03:28:08;;;;;;;34.83;15.48;;;;;;;16.45;94.01;100634.38;10131591;29;20052;-74
2023/08/18 03:33:11;;;;;;;34.88;15.57;;;;;;;16.51;93.78;100631.06;10127663;28;20048;-74
2023/08/18 03:38:14;;;;;;;32.58;14.68;;;;;;;16.51;93.85;100633.78;10128746;28;20123;-74
2023/08/18 03:43:18;;;;;;;32.60;14.73;;;;;;;16.50;93.73;100625.78;10130745;28;20443;-73
2023/08/18 03:48:21;;;;;;;28.88;14.20;;;;;;;16.54;93.74;100616.34;10119140;29;20547;-74
2023/08/18 03:53:24;;;;;;;28.92;15.18;;;;;;;16.51;93.66;100614.81;10119494;29;20543;-74
2023/08/18 03:58:28;;;;;;;28.95;14.93;;;;;;;16.54;93.70;100616.34;10125711;29;20052;-74
2023/08/18 04:03:32;;;;;;;29.13;15.07;;;;;;;16.54;93.36;100602.78;10118081;28;20049;-74
2023/08/18 04:08:41;;;;;;;34.28;16.52;;;;;;;16.53;93.13;100604.63;10125763;28;20571;-74
2023/08/18 04:13:47;;;;;;;33.17;17.40;;;;;;;16.56;93.27;100603.47;10117009;29;20063;-74
2023/08/18 04:18:51;;;;;;;33.25;16.70;;;;;;;16.62;93.64;100612.81;10111551;29;20112;-74
2023/08/18 04:23:54;;;;;;;36.05;17.73;;;;;;;16.62;93.53;100613.69;10129109;29;20160;-74
2023/08/18 04:28:59;;;;;;;35.42;17.77;;;;;;;16.63;93.57;100607.25;10125586;28;20056;-74
2023/08/18 04:34:03;;;;;;;33.35;17.85;;;;;;;16.64;93.55;100608.09;10135795;29;20062;-74
2023/08/18 04:39:06;;;;;;;31.98;16.80;;;;;;;16.68;93.67;100612.22;10134111;28;20080;-74
2023/08/18 04:44:10;;;;;;;35.10;16.00;;;;;;;16.72;93.67;100606.28;10131722;29;21105;-74
2023/08/18 04:49:14;;;;;;;31.70;16.85;;;;;;;16.79;93.76;100614.66;10128260;29;20054;-74
2023/08/18 04:54:17;;;;;;;32.65;17.38;;;;;;;16.84;93.36;100620.47;10133784;29;20175;-74
2023/08/18 04:59:21;;;;;;;33.42;17.90;;;;;;;16.87;93.32;100612.00;10125853;29;20531;-73
2023/08/18 05:04:25;;;;;;;36.20;17.52;;;;;;;16.82;92.96;100614.34;10128105;28;20055;-74
2023/08/18 05:09:28;;;;;;;34.13;16.35;;;;;;;16.88;93.24;100612.84;10127199;29;20063;-74
2023/08/18 05:14:32;;;;;;;28.65;15.20;;;;;;;16.95;93.23;100601.19;10133194;29;21188;-74
2023/08/18 05:19:35;;;;;;;35.60;15.13;;;;;;;16.98;93.22;100609.00;10137230;29;20059;-73
2023/08/18 05:24:38;;;;;;;34.25;16.02;;;;;;;17.02;93.35;100610.38;10127089;28;20056;-74
2023/08/18 05:29:43;;;;;;;33.65;15.25;;;;;;;17.10;93.03;100608.72;10127377;28;21304;-74
2023/08/18 05:34:45;;;;;;;32.35;15.52;;;;;;;17.06;92.12;100613.66;10130046;28;20056;-74
2023/08/18 05:39:48;;;;;;;31.55;14.68;;;;;;;17.09;92.69;100609.75;10139649;28;20715;-74
2023/08/18 05:44:52;;;;;;;35.28;14.85;;;;;;;17.15;92.44;100620.84;10132275;29;20056;-73
2023/08/18 05:49:55;;;;;;;38.08;16.48;;;;;;;17.15;91.70;100622.72;10137903;29;20501;-74
2023/08/18 05:54:58;;;;;;;36.47;17.02;;;;;;;17.27;92.22;100625.97;10130338;28;20060;-73
2023/08/18 06:00:03;;;;;;;38.30;16.13;;;;;;;17.31;91.73;100635.53;10135206;28;20047;-73
2023/08/18 06:05:14;;;;;;;33.63;15.15;;;;;;;17.54;91.89;100624.91;10132040;28;20048;-74
2023/08/18 06:10:17;;;;;;;40.05;17.75;;;;;;;17.55;89.97;100629.31;10125405;29;20122;-73
2023/08/18 06:15:22;;;;;;;20.83;11.15;;;;;;;17.78;90.71;100643.16;10132750;29;20052;-74
2023/08/18 06:20:25;;;;;;;31.10;15.25;;;;;;;18.14;89.56;100641.91;10131796;28;20056;-74
2023/08/18 06:25:27;;;;;;;27.23;12.98;;;;;;;18.30;88.44;100638.38;10130246;28;20052;-73
2023/08/18 06:30:32;;;;;;;21.50;12.18;;;;;;;18.49;87.35;100649.94;10124337;29;20052;-74
2023/08/18 06:35:34;;;;;;;27.23;14.05;;;;;;;18.50;85.80;100654.34;10126465;29;20100;-74
2023/08/18 06:40:37;;;;;;;30.17;16.05;;;;;;;18.47;85.91;100650.09;10125350;29;20056;-74
2023/08/18 06:45:41;;;;;;;28.98;13.90;;;;;;;18.58;84.80;100652.47;10124360;29;20056;-73
2023/08/18 06:50:44;;;;;;;27.52;12.98;;;;;;;18.79;85.15;100652.00;10128138;28;20052;-73
2023/08/18 06:55:47;;;;;;;26.27;13.25;;;;;;;19.07;84.27;100648.88;10122667;29;20056;-73
2023/08/18 07:01:06;;;;;;;25.15;13.43;;;;;;;19.22;83.04;100644.41;10128942;28;20052;-73
2023/08/18 07:06:09;;;;;;;26.42;14.55;;;;;;;19.56;82.75;100650.63;10123896;29;20081;-74
2023/08/18 07:11:12;;;;;;;27.02;15.05;;;;;;;19.77;81.15;100655.47;10133222;29;20063;-73
2023/08/18 07:16:16;;;;;;;24.33;14.23;;;;;;;19.82;79.96;100645.72;10133924;28;20500;-73
2023/08/18 07:21:19;;;;;;;25.08;14.02;;;;;;;20.18;79.10;100655.22;10128825;29;20063;-73
2023/08/18 07:26:22;;;;;;;26.88;15.07;;;;;;;20.09;78.25;100652.53;10131905;29;20127;-74
2023/08/18 07:31:26;;;;;;;23.02;14.50;;;;;;;19.95;79.37;100656.06;10129708;29;20056;-74
2023/08/18 07:36:29;;;;;;;21.92;14.38;;;;;;;20.10;79.51;100653.38;10124993;29;20138;-74
2023/08/18 07:41:32;;;;;;;23.73;14.13;;;;;;;20.09;78.72;100638.91;10127478;29;20048;-73
2023/08/18 07:46:37;;;;;;;22.00;13.80;;;;;;;20.37;78.45;100630.22;10122480;28;21546;-74
2023/08/18 07:51:41;;;;;;;22.45;13.80;;;;;;;20.38;78.71;100629.22;10137226;28;20067;-77
2023/08/18 07:56:44;;;;;;;25.15;15.38;;;;;;;20.51;76.95;100634.88;10146104;28;20417;-77
2023/08/18 08:01:48;;;;;;;20.27;13.50;;;;;;;20.42;78.01;100632.41;10142559;28;20164;-76
2023/08/18 08:06:53;;;;;;;20.63;13.63;;;;;;;20.44;78.45;100630.34;10152051;28;20052;-77
2023/08/18 08:11:56;;;;;;;18.27;12.98;;;;;;;19.94;80.17;100634.41;10151533;28;20086;-76
2023/08/18 08:17:00;;;;;;;20.42;13.05;;;;;;;20.42;79.25;100627.78;10143367;28;20052;-77
2023/08/18 08:22:08;;;;;;;19.63;13.00;;;;;;;20.83;78.05;100629.31;10148929;28;20504;-77
2023/08/18 08:27:11;;;;;;;22.35;13.95;;;;;;;20.55;78.31;100625.28;10153909;28;20044;-76
2023/08/18 08:32:15;;;;;;;17.58;12.63;;;;;;;20.53;78.47;100629.25;10131320;28;20064;-76
2023/08/18 08:37:19;;;;;;;19.17;13.23;;;;;;;20.76;76.88;100626.47;10151235;28;20056;-75
2023/08/18 08:42:23;;;;;;;21.55;13.93;;;;;;;20.72;76.86;100623.25;10134450;28;20086;-76
2023/08/18 08:47:27;;;;;;;17.88;12.88;;;;;;;20.87;76.37;100634.22;10136921;28;20094;-75
2023/08/18 08:52:35;;;;;;;17.55;13.32;;;;;;;20.93;76.60;100610.78;10144366;28;20159;-74
2023/08/18 08:57:38;;;;;;;19.38;14.02;;;;;;;21.43;75.38;100620.97;10154032;29;20586;-74
2023/08/18 09:02:43;;;;;;;17.10;13.15;;;;;;;21.58;74.55;100615.47;10131284;28;20077;-75
2023/08/18 09:07:46;;;;;;;17.80;12.63;;;;;;;21.71;73.38;100605.75;10143780;28;20060;-75
2023/08/18 09:12:56;;;;;;;17.42;13.55;;;;;;;22.17;72.56;100608.19;10142104;28;20052;-75
2023/08/18 09:18:00;;;;;;;16.90;13.40;;;;;;;22.47;71.65;100609.75;10137323;29;20052;-75
2023/08/18 09:23:03;;;;;;;17.08;12.57;;;;;;;22.58;69.68;100602.91;10135910;28;20197;-73
2023/08/18 09:28:06;;;;;;;15.10;12.52;;;;;;;22.88;70.10;100595.34;10133881;29;21744;-74
2023/08/18 09:33:23;;;;;;;17.67;12.17;;;;;;;23.21;68.34;100603.78;10129811;28;20052;-74
2023/08/18 09:38:30;;;;;;;13.32;11.38;;;;;;;24.00;66.67;100596.94;10140135;28;20284;-75
2023/08/18 09:43:39;;;;;;;14.82;11.00;;;;;;;24.26;64.66;100590.63;10138239;29;20071;-74
2023/08/18 09:48:46;;;;;;;15.57;11.65;;;;;;;24.61;63.67;100590.47;10142480;28;20693;-74
2023/08/18 09:53:57;;;;;;;14.90;11.43;;;;;;;24.63;63.38;100582.00;10144117;28;20056;-74
2023/08/18 09:59:09;;;;;;;11.73;10.23;;;;;;;25.01;62.52;100576.66;10148313;28;20052;-74
2023/08/18 10:04:14;;;;;;;14.40;11.45;;;;;;;24.38;64.28;100582.66;10130677;28;20051;-73
2023/08/18 10:09:17;;;;;;;14.88;11.68;;;;;;;24.99;62.51;100567.81;10134857;28;20051;-74
2023/08/18 10:14:23;;;;;;;12.85;10.68;;;;;;;25.58;60.99;100571.41;10135713;29;20088;-73
2023/08/18 10:19:49;;;;;;;12.55;11.25;;;;;;;25.66;59.49;100571.19;10139791;28;20216;-74
2023/08/18 10:24:53;;;;;;;11.18;10.02;;;;;;;25.56;61.48;100566.16;10133369;29;20048;-73
2023/08/18 10:29:57;;;;;;;12.73;9.60;;;;;;;26.51;58.13;100554.31;10133928;28;20075;-74
2023/08/18 10:35:20;;;;;;;13.40;10.15;;;;;;;26.14;59.02;100561.56;10131777;28;20055;-73
2023/08/18 10:40:30;;;;;;;11.38;10.27;;;;;;;25.99;59.52;100557.22;10131671;28;20041;-73
2023/08/18 10:45:33;;;;;;;10.70;9.60;;;;;;;26.41;59.33;100532.81;10123432;29;20052;-73
2023/08/18 10:50:40;;;;;;;10.60;9.50;;;;;;;27.12;58.37;100528.69;10120264;29;20187;-73
2023/08/18 10:55:44;;;;;;;11.25;10.15;;;;;;;27.45;56.14;100521.94;10121771;29;20067;-74
2023/08/18 11:00:47;;;;;;;12.32;9.60;;;;;;;27.76;54.77;100520.03;10125878;28;20041;-74
2023/08/18 11:05:53;;;;;;;12.63;9.90;;;;;;;28.04;55.35;100508.38;10132526;28;20084;-74
2023/08/18 11:10:56;;;;;;;10.57;9.57;;;;;;;29.10;53.41;100509.22;10125251;29;20051;-73
2023/08/18 11:15:59;;;;;;;12.07;9.20;;;;;;;29.48;51.24;100499.44;10125605;29;20703;-73
2023/08/18 11:21:04;;;;;;;9.30;8.48;;;;;;;29.45;51.26;100491.63;10120306;29;20288;-74
2023/08/18 11:26:08;;;;;;;10.55;8.77;;;;;;;29.62;49.51;100490.88;10123545;28;20428;-74
2023/08/18 11:31:13;;;;;;;10.27;9.25;;;;;;;28.91;50.64;100499.38;10123681;28;20059;-73
2023/08/18 11:36:18;;;;;;;9.15;8.23;;;;;;;29.27;49.79;100492.69;10126106;28;20776;-74
2023/08/18 11:41:21;;;;;;;11.77;8.25;;;;;;;30.09;48.93;100488.69;10126744;29;20568;-74
2023/08/18 11:46:24;;;;;;;8.88;7.97;;;;;;;30.92;46.96;100483.28;10118049;29;20059;-73
2023/08/18 11:51:30;;;;;;;9.15;8.25;;;;;;;30.97;46.86;100474.22;10123238;29;20167;-74
2023/08/18 11:56:37;;;;;;;10.23;7.90;;;;;;;31.48;45.45;100475.63;10123918;28;20266;-74
2023/08/18 12:01:40;;;;;;;7.93;7.20;;;;;;;31.74;45.56;100476.78;10122725;28;20048;-74
2023/08/18 12:06:44;;;;;;;8.95;8.00;;;;;;;31.98;44.75;100456.97;10116651;29;20420;-74
2023/08/18 12:11:47;;;;;;;8.80;7.88;;;;;;;31.70;44.83;100458.94;10123000;28;20052;-74
2023/08/18 12:16:50;;;;;;;8.40;7.70;;;;;;;31.89;44.58;100451.06;10124688;29;20089;-74
2023/08/18 12:21:54;;;;;;;8.32;7.53;;;;;;;31.69;44.80;100446.19;10121289;28;20119;-74
2023/08/18 12:26:57;;;;;;;8.30;7.50;;;;;;;31.92;45.98;100450.53;10119235;28;20051;-75
2023/08/18 12:32:00;;;;;;;7.72;7.13;;;;;;;32.88;44.29;100448.66;10115132;29;20075;-75
2023/08/18 12:37:04;;;;;;;9.48;7.60;;;;;;;32.48;44.29;100435.41;10116806;29;20076;-74
2023/08/18 12:42:07;;;;;;;8.10;7.30;;;;;;;33.01;43.94;100428.69;10115805;29;20429;-74
2023/08/18 12:47:10;;;;;;;6.95;6.35;;;;;;;32.62;43.77;100431.84;10124366;29;20055;-74
2023/08/18 12:52:14;;;;;;;6.70;6.03;;;;;;;32.24;43.75;100424.69;10120184;28;20052;-74
2023/08/18 12:57:17;;;;;;;6.22;5.72;;;;;;;32.11;42.68;100431.50;10122223;29;20107;-74
2023/08/18 13:02:20;;;;;;;6.43;5.85;;;;;;;32.37;43.09;100428.94;10125986;29;20132;-74
2023/08/18 13:07:24;;;;;;;7.15;5.63;;;;;;;32.06;42.97;100433.41;10121321;29;21552;-74
2023/08/18 13:12:27;;;;;;;5.78;5.18;;;;;;;32.90;41.63;100421.44;10125388;29;20221;-75
2023/08/18 13:17:30;;;;;;;5.22;4.72;;;;;;;33.18;41.09;100420.13;10130248;28;20058;-75
2023/08/18 13:22:42;;;;;;;5.22;4.72;;;;;;;33.20;41.36;100417.94;10118593;28;20051;-74
2023/08/18 13:27:45;;;;;;;5.45;4.93;;;;;;;32.65;41.43;100416.56;10122887;29;21194;-74
2023/08/18 13:32:47;;;;;;;5.50;5.00;;;;;;;32.43;42.15;100420.34;10117978;29;20054;-74
2023/08/18 13:37:52;;;;;;;5.43;4.93;;;;;;;32.68;41.81;100416.06;10117973;29;20108;-74
2023/08/18 13:42:55;;;;;;;5.38;4.88;;;;;;;33.06;40.83;100406.47;10115220;29;20056;-74
2023/08/18 13:47:58;;;;;;;4.93;4.50;;;;;;;33.11;41.32;100388.94;10117711;28;20096;-74
2023/08/18 13:53:11;;;;;;;5.70;5.00;;;;;;;33.53;41.24;100390.69;10113991;28;20045;-74
2023/08/18 13:58:14;;;;;;;7.07;4.90;;;;;;;33.16;41.48;100385.34;10110535;29;20053;-74
2023/08/18 14:03:17;;;;;;;5.50;5.00;;;;;;;33.32;41.55;100387.03;10109736;29;20702;-74
2023/08/18 14:08:21;;;;;;;5.88;5.10;;;;;;;32.70;42.10;100368.53;10117437;29;20045;-74
2023/08/18 14:13:24;;;;;;;5.30;4.90;;;;;;;32.98;41.07;100370.81;10116308;28;20100;-74
2023/08/18 14:18:27;;;;;;;5.28;4.80;;;;;;;33.04;41.21;100369.72;10118289;28;20139;-75
2023/08/18 14:23:31;;;;;;;5.40;5.00;;;;;;;33.55;41.15;100377.34;10117204;29;20060;-74
2023/08/18 14:28:34;;;;;;;5.97;5.43;;;;;;;32.90;41.40;100363.00;10131051;29;20197;-74
2023/08/18 14:33:37;;;;;;;6.10;5.50;;;;;;;33.22;42.11;100360.06;10114875;28;20059;-74
2023/08/18 14:38:50;;;;;;;5.72;5.25;;;;;;;33.62;40.94;100352.84;10123949;29;20048;-75
2023/08/18 14:43:53;;;;;;;6.85;5.40;;;;;;;33.32;41.63;100348.09;10126402;28;20052;-74
2023/08/18 14:48:56;;;;;;;6.30;5.70;;;;;;;33.08;42.57;100347.75;10110076;29;20047;-74
2023/08/18 14:54:00;;;;;;;5.57;5.15;;;;;;;33.15;41.95;100339.16;10119164;29;20148;-74
2023/08/18 14:59:03;;;;;;;6.32;5.78;;;;;;;33.10;41.88;100329.69;10112493;29;20055;-75
2023/08/18 15:04:06;;;;;;;6.75;5.85;;;;;;;33.64;41.86;100327.50;10112807;29;20171;-74
2023/08/18 15:09:10;;;;;;;6.72;6.03;;;;;;;33.79;41.46;100315.50;10120789;29;20056;-74
2023/08/18 15:14:13;;;;;;;6.22;5.63;;;;;;;33.43;41.67;100321.09;10104899;28;20167;-74
2023/08/18 15:19:16;;;;;;;6.38;5.88;;;;;;;33.14;42.07;100316.09;10121812;28;20044;-74
2023/08/18 15:24:20;;;;;;;5.70;5.20;;;;;;;33.51;42.32;100323.31;10119319;29;20052;-75
2023/08/18 15:29:23;;;;;;;6.30;5.80;;;;;;;33.62;41.32;100313.03;10120535;29;20397;-74
2023/08/18 15:34:29;;;;;;;6.05;5.47;;;;;;;33.60;41.86;100313.28;10123627;29;20052;-74
2023/08/18 15:39:33;;;;;;;7.90;5.70;;;;;;;33.66;41.57;100314.16;10126461;28;20044;-74
2023/08/18 15:44:36;;;;;;;6.20;5.60;;;;;;;32.97;42.54;100310.75;10129209;28;20093;-74
2023/08/18 15:49:39;;;;;;;5.47;5.07;;;;;;;33.12;42.23;100309.91;10120104;29;20049;-74
2023/08/18 15:54:43;;;;;;;6.03;5.53;;;;;;;33.16;42.42;100305.50;10119210;29;21364;-74
2023/08/18 15:59:46;;;;;;;5.88;5.38;;;;;;;32.85;42.80;100310.97;10122116;29;20370;-74
2023/08/18 16:04:49;;;;;;;10.40;6.07;;;;;;;33.01;42.84;100302.69;10124863;29;20055;-75
2023/08/18 16:09:53;;;;;;;6.47;5.88;;;;;;;33.11;42.63;100309.09;10123287;29;20052;-75
2023/08/18 16:14:56;;;;;;;6.15;5.55;;;;;;;33.12;42.58;100298.78;10121191;29;20435;-75
2023/08/18 16:20:19;;;;;;;5.93;5.32;;;;;;;32.80;42.52;100291.53;10124361;29;20044;-75
2023/08/18 16:25:24;;;;;;;7.18;5.95;;;;;;;32.66;43.43;100295.94;10117987;29;20710;-75
2023/08/18 16:30:26;;;;;;;8.57;5.72;;;;;;;32.63;42.70;100282.53;10130646;29;20522;-75
2023/08/18 16:35:31;;;;;;;6.35;5.05;;;;;;;32.38;43.27;100286.09;10132969;28;20079;-75
2023/08/18 16:40:36;;;;;;;5.68;5.28;;;;;;;32.30;43.83;100281.06;10141353;28;20595;-76
2023/08/18 16:45:39;;;;;;;6.43;4.80;;;;;;;32.18;43.49;100281.28;10131641;29;20048;-76
2023/08/18 16:50:44;;;;;;;5.85;4.82;;;;;;;32.32;43.67;100276.91;10132968;29;20056;-75
2023/08/18 16:55:48;;;;;;;9.80;6.28;;;;;;;31.94;43.90;100280.84;10131856;28;20044;-75
2023/08/18 17:00:51;;;;;;;5.45;5.03;;;;;;;31.41;44.77;100272.44;10133933;28;20052;-74
2023/08/18 17:05:54;;;;;;;6.10;5.38;;;;;;;31.29;45.25;100260.69;10131672;28;20068;-75
2023/08/18 17:10:59;;;;;;;8.77;5.57;;;;;;;31.03;45.43;100259.59;10135662;29;20054;-75
2023/08/18 17:16:02;;;;;;;5.15;4.75;;;;;;;31.12;45.90;100261.63;10125262;29;20066;-74
2023/08/18 17:21:05;;;;;;;6.90;5.72;;;;;;;31.08;46.22;100268.81;10124195;29;20049;-75
2023/08/18 17:26:10;;;;;;;7.25;5.40;;;;;;;31.87;44.74;100247.78;10126555;29;20056;-74
2023/08/18 17:31:13;;;;;;;7.05;6.05;;;;;;;32.68;43.37;100254.78;10122943;28;20052;-74
2023/08/18 17:36:16;;;;;;;7.50;5.63;;;;;;;31.97;44.56;100252.53;10128403;28;20083;-74
2023/08/18 17:41:20;;;;;;;7.28;6.13;;;;;;;30.33;47.16;100251.09;10125779;29;20052;-74
2023/08/18 17:46:23;;;;;;;6.50;5.90;;;;;;;29.01;50.34;100253.50;10123525;29;21618;-74
2023/08/18 17:51:26;;;;;;;6.30;5.55;;;;;;;28.43;51.62;100255.44;10128853;29;20555;-74
2023/08/18 17:56:30;;;;;;;8.10;6.10;;;;;;;28.11;52.86;100257.00;10128190;28;20059;-73
2023/08/18 18:01:34;;;;;;;6.20;5.70;;;;;;;27.80;53.66;100259.91;10127480;28;20052;-74
2023/08/18 18:06:37;;;;;;;6.72;6.13;;;;;;;27.54;54.51;100268.69;10128409;29;20048;-74
2023/08/18 18:11:42;;;;;;;6.93;6.28;;;;;;;27.33;55.26;100267.31;10117966;29;20053;-74
2023/08/18 18:16:45;;;;;;;7.82;6.40;;;;;;;27.17;55.33;100277.94;10126718;29;20183;-74
2023/08/18 18:21:48;;;;;;;7.13;6.22;;;;;;;27.00;56.01;100282.47;10127301;29;20968;-75
2023/08/18 18:26:52;;;;;;;7.05;6.25;;;;;;;26.84;56.64;100281.22;10126823;28;20048;-75
2023/08/18 18:31:56;;;;;;;8.23;6.82;;;;;;;26.70;57.10;100277.78;10124768;29;20047;-76
2023/08/18 18:36:59;;;;;;;7.53;6.57;;;;;;;26.56;57.69;100292.00;10123483;29;20114;-75
2023/08/18 18:42:04;;;;;;;6.35;5.75;;;;;;;26.43;57.64;100291.06;10128240;29;20048;-75
2023/08/18 18:47:07;;;;;;;6.75;5.70;;;;;;;26.30;58.20;100296.75;10130323;29;20126;-74
2023/08/18 18:52:12;;;;;;;7.65;6.15;;;;;;;26.18;58.69;100302.16;10122031;28;20075;-73
2023/08/18 18:57:16;;;;;;;7.43;6.05;;;;;;;26.04;58.96;100300.63;10120120;28;20054;-74
2023/08/18 19:02:19;;;;;;;9.43;6.32;;;;;;;25.90;59.29;100296.34;10121867;29;20047;-74
2023/08/18 19:07:22;;;;;;;6.95;6.03;;;;;;;25.78;59.62;100299.84;10124634;29;20051;-74
2023/08/18 19:12:29;;;;;;;7.88;6.85;;;;;;;25.65;60.27;100305.47;10122661;29;21165;-74
2023/08/18 19:17:34;;;;;;;11.30;7.00;;;;;;;25.54;60.19;100306.19;10124210;29;20048;-74
2023/08/18 19:22:37;;;;;;;9.40;7.03;;;;;;;25.43;60.62;100317.91;10123403;28;20063;-74
2023/08/18 19:27:41;;;;;;;7.68;6.97;;;;;;;25.34;60.75;100309.94;10117959;29;20052;-75
2023/08/18 19:32:44;;;;;;;7.30;6.50;;;;;;;25.27;61.21;100314.66;10122553;29;20056;-74
2023/08/18 19:37:47;;;;;;;9.75;7.38;;;;;;;25.23;61.33;100312.56;10120547;29;20504;-75
2023/08/18 19:42:51;;;;;;;7.75;7.05;;;;;;;25.08;61.74;100310.97;10134551;29;20052;-74
2023/08/18 19:47:54;;;;;;;8.40;7.03;;;;;;;25.04;61.77;100308.88;10131946;28;20048;-75
2023/08/18 19:52:57;;;;;;;7.80;7.05;;;;;;;24.94;62.13;100312.94;10135518;28;20547;-74
2023/08/18 19:58:01;;;;;;;7.80;7.10;;;;;;;24.87;62.28;100308.53;10130530;29;20044;-74
2023/08/18 20:03:05;;;;;;;11.55;7.50;;;;;;;24.80;62.63;100308.59;10135752;29;20052;-75
2023/08/18 20:08:10;;;;;;;7.72;7.03;;;;;;;24.72;62.95;100301.44;10132157;29;20059;-74
2023/08/18 20:13:14;;;;;;;8.40;7.07;;;;;;;24.56;63.09;100299.22;10129279;28;20052;-76
2023/08/18 20:18:17;;;;;;;9.00;6.88;;;;;;;24.51;63.31;100297.09;10129009;28;20059;-74
2023/08/18 20:23:20;;;;;;;7.72;6.47;;;;;;;24.44;63.30;100292.75;10132163;29;20071;-74
2023/08/18 20:28:24;;;;;;;8.25;7.10;;;;;;;24.44;63.12;100299.06;10130680;29;20051;-75
2023/08/18 20:33:27;;;;;;;8.60;7.05;;;;;;;24.36;63.10;100301.19;10133158;28;20122;-75
2023/08/18 20:38:30;;;;;;;7.95;7.15;;;;;;;24.17;63.70;100295.53;10131991;28;20114;-74
2023/08/18 20:43:36;;;;;;;7.68;6.80;;;;;;;24.25;63.50;100292.56;10138927;28;20127;-75
2023/08/18 20:48:41;;;;;;;10.88;7.32;;;;;;;24.15;63.64;100299.56;10128672;28;20059;-75
2023/08/18 20:53:44;;;;;;;7.32;6.65;;;;;;;24.12;63.69;100294.50;10133133;29;20800;-75
2023/08/18 20:58:48;;;;;;;8.15;7.35;;;;;;;24.10;63.56;100301.03;10133533;28;20047;-75
2023/08/18 21:03:51;;;;;;;9.80;6.75;;;;;;;23.95;64.02;100302.38;10131800;29;21494;-73
2023/08/18 21:08:54;;;;;;;8.00;6.60;;;;;;;24.00;63.79;100289.69;10150141;28;21148;-74
2023/08/18 21:13:58;;;;;;;8.20;7.07;;;;;;;23.97;63.73;100290.13;10137758;28;20051;-74
2023/08/18 21:19:01;;;;;;;7.75;6.95;;;;;;;23.94;63.68;100300.66;10142912;28;20078;-74
2023/08/18 21:24:04;;;;;;;7.75;6.55;;;;;;;23.76;64.25;100296.69;10136670;28;20051;-74
2023/08/18 21:29:10;;;;;;;8.98;6.60;;;;;;;23.82;63.82;100301.31;10137817;29;20106;-74
2023/08/18 21:34:13;;;;;;;7.57;6.00;;;;;;;23.64;64.15;100301.97;10132673;28;20071;-73
2023/08/18 21:39:16;;;;;;;8.35;6.18;;;;;;;23.64;64.15;100307.44;10129335;28;20052;-74
2023/08/18 21:44:21;;;;;;;8.68;5.57;;;;;;;23.59;64.13;100303.66;10140949;28;20052;-74
2023/08/18 21:49:24;;;;;;;8.45;5.97;;;;;;;23.61;64.08;100291.44;10139071;29;20063;-75
2023/08/18 21:54:27;;;;;;;8.90;6.43;;;;;;;23.46;64.66;100309.13;10130572;29;20056;-74
2023/08/18 21:59:33;;;;;;;6.70;5.90;;;;;;;23.51;64.62;100304.72;10124148;28;20110;-75
2023/08/18 22:04:36;;;;;;;7.50;6.18;;;;;;;23.40;65.01;100300.69;10146085;28;20044;-75
2023/08/18 22:09:39;;;;;;;9.35;6.38;;;;;;;23.29;65.16;100305.97;10135660;28;20409;-75
2023/08/18 22:14:44;;;;;;;7.63;6.68;;;;;;;23.33;65.38;100302.59;10126503;29;20063;-74
2023/08/18 22:19:47;;;;;;;9.15;6.05;;;;;;;23.23;65.39;100312.28;10142165;29;20048;-75
2023/08/18 22:24:51;;;;;;;8.60;6.75;;;;;;;23.35;65.45;100307.88;10138326;28;20621;-75
2023/08/18 22:29:55;;;;;;;8.45;6.60;;;;;;;23.29;65.57;100298.59;10136853;28;20055;-75
2023/08/18 22:34:58;;;;;;;7.40;6.50;;;;;;;23.17;66.09;100300.25;10135948;29;20054;-75
2023/08/18 22:40:03;;;;;;;7.88;6.43;;;;;;;23.10;66.25;100297.50;10140003;28;20059;-75
2023/08/18 22:45:08;;;;;;;11.98;6.68;;;;;;;22.97;66.61;100303.78;10134703;28;20084;-75
2023/08/18 22:50:11;;;;;;;9.82;6.38;;;;;;;22.86;67.13;100301.66;10137240;29;20056;-75
2023/08/18 22:55:14;;;;;;;10.63;8.18;;;;;;;22.76;67.33;100307.56;10128855;29;20180;-75
2023/08/18 23:00:18;;;;;;;12.15;7.43;;;;;;;22.67;67.88;100306.03;10139055;29;20063;-75